»·PEaware :: N2604M L88-KSBP

N2604M :: L88-KSBP

FLIGHT INFORMATION

Flight Status: Arrived
Operator: Privately registered:
United States
More flights under this callsign
Pilot: Magnus A. (27892)
Aircraft: CESSNA 172 SKYHAWK
(C172)
More flights by this aircraft type
Origin: L88 New Cuyama
United States
Destination: KSBP San Luis Co Regl
United States
More flights between these airports :: More routes between these airports
Route:
File this flight plan on PilotEdge
Remarks: CAT-02
Altitude:
(Current/Filed)
6,500ft
Speed:
(Current/Filed)
120kts
Departed: 06-Feb-20 05:08 PM
Arrived: 06-Feb-20 05:43 PM
Distance/Time
Traveled:
50nm/0:35
Distance/Time
To Go:
Arrived

Flight Plot

Page will automatically refresh every two minutes.


Map Options




Map Legend


Flown Route
Filed Route
Departure Airport
Arrival Airport
Navaid (VOR, NDB)
Fix

Horizontal Profiles

Position Reports

Time Latitude Longitude Heading Altitude Ground
Speed
06-Feb-20 16:54 34.943924 -119.690797 203 2154ft 0kts
06-Feb-20 16:55 34.943912 -119.690803 203 2154ft 0kts
06-Feb-20 16:56 34.943912 -119.690803 203 2154ft 0kts
06-Feb-20 16:57 34.943912 -119.690803 203 2154ft 0kts
06-Feb-20 16:58 34.943912 -119.690803 203 2154ft 0kts
06-Feb-20 16:59 34.943912 -119.690803 203 2154ft 0kts
06-Feb-20 17:00 34.943912 -119.690803 203 2154ft 0kts
06-Feb-20 17:01 34.943748 -119.690842 185 2154ft 2kts
06-Feb-20 17:02 34.942794 -119.691070 212 2155ft 0kts
06-Feb-20 17:03 34.941943 -119.690373 114 2158ft 8kts
06-Feb-20 17:04 34.939723 -119.685023 115 2179ft 23kts
06-Feb-20 17:05 34.937696 -119.680048 285 2200ft 0kts
06-Feb-20 17:06 34.937806 -119.680463 293 2198ft 0kts
06-Feb-20 17:07 34.943535 -119.694435 288 2575ft 66kts
06-Feb-20 17:08 34.950068 -119.714277 299 3365ft 59kts
06-Feb-20 17:09 34.958242 -119.731544 295 4075ft 58kts
06-Feb-20 17:10 34.965593 -119.749494 295 4752ft 59kts
06-Feb-20 17:11 34.972966 -119.767170 292 5428ft 58kts
06-Feb-20 17:12 34.978848 -119.785840 291 6058ft 60kts
06-Feb-20 17:13 34.987588 -119.806102 297 6499ft 82kts
06-Feb-20 17:14 35.000104 -119.831479 305 6691ft 108kts
06-Feb-20 17:15 35.020999 -119.858145 321 6530ft 106kts
06-Feb-20 17:16 35.046290 -119.877834 320 6230ft 107kts
06-Feb-20 17:17 35.071353 -119.895120 332 6165ft 99kts
06-Feb-20 17:18 35.098559 -119.903303 328 6053ft 102kts
06-Feb-20 17:19 35.113591 -119.929951 289 6028ft 96kts
06-Feb-20 17:20 35.120579 -119.961434 282 6010ft 95kts
06-Feb-20 17:21 35.126355 -119.992616 292 6024ft 94kts
06-Feb-20 17:22 35.136737 -120.021841 302 6035ft 94kts
06-Feb-20 17:23 35.147699 -120.050794 293 6049ft 94kts
06-Feb-20 17:24 35.158763 -120.079719 285 6042ft 96kts
06-Feb-20 17:25 35.162404 -120.110573 284 6210ft 87kts
06-Feb-20 17:26 35.163981 -120.137885 279 6465ft 82kts
06-Feb-20 17:27 35.163533 -120.168084 272 6530ft 90kts
06-Feb-20 17:28 35.162629 -120.198953 274 6635ft 90kts
06-Feb-20 17:29 35.163309 -120.229579 290 6736ft 88kts
06-Feb-20 17:30 35.168726 -120.259196 284 6805ft 91kts
06-Feb-20 17:31 35.172627 -120.289884 285 6880ft 91kts
06-Feb-20 17:32 35.177088 -120.321273 287 6842ft 98kts
06-Feb-20 17:33 35.178830 -120.354257 279 6837ft 99kts
06-Feb-20 17:34 35.181021 -120.387502 282 6630ft 98kts
06-Feb-20 17:35 35.185235 -120.420184 293 6398ft 96kts
06-Feb-20 17:36 35.190976 -120.452137 292 6193ft 95kts
06-Feb-20 17:37 35.199648 -120.482726 295 6092ft 95kts
06-Feb-20 17:38 35.206915 -120.513894 287 5998ft 96kts
06-Feb-20 17:39 35.215668 -120.544257 299 5739ft 94kts
06-Feb-20 17:40 35.219614 -120.584205 283 3660ft 127kts
06-Feb-20 17:41 35.228166 -120.625296 303 921ft 132kts
06-Feb-20 17:42 35.242431 -120.649909 311 216ft 30kts
06-Feb-20 17:43 35.241922 -120.649139 149 216ft 27kts
06-Feb-20 17:44 35.240194 -120.644108 127 216ft 5kts
06-Feb-20 17:45 35.238491 -120.639646 351 216ft 16kts
06-Feb-20 17:46 35.238794 -120.639731 336 216ft 0kts
06-Feb-20 17:47 35.238794 -120.639731 336 216ft 0kts
06-Feb-20 17:48 35.238794 -120.639731 336 216ft 0kts
06-Feb-20 17:49 35.238794 -120.639731 336 216ft 0kts
06-Feb-20 17:50 35.238794 -120.639731 336 216ft 0kts
06-Feb-20 17:51 35.238794 -120.639731 336 216ft 0kts
06-Feb-20 17:52 35.238794 -120.639731 336 216ft 0kts
06-Feb-20 17:53 35.238794 -120.639731 336 216ft 0kts
06-Feb-20 17:54 35.238794 -120.639731 336 216ft 0kts
06-Feb-20 17:55 35.238794 -120.639731 336 216ft 0kts
06-Feb-20 17:56 35.238794 -120.639731 336 216ft 0kts

Navigation Log

Ident Type
Flight plan parsing failed, navigation log unavailable